< < Back
Terminal Aerodrome Forecast


Current Version              Previous Versions:   1  2  3  4  5  6  7  8  9  

Terminal Aerodrome Forecast

598
FTUS42 KFFC 261512 AAB
TAFCSG
TAF AMD
KCSG 261512Z 2615/2712 17008KT P6SM BKN025
     FM261800 17007KT P6SM -SHRA OVC035
      TEMPO 2621/2624 3SM TSRA BR OVC015CB
     FM270000 15006KT P6SM VCSH SCT030 BKN045
     FM270600 12005KT P6SM BKN015=



Latest METAR

007
SAUS70 KWBC 270100
MTRCSG
METAR KCSG 270051Z VRB03KT 10SM BKN005 OVC014 21/19 A3017 RMK AO2 RAE21
SLP213 P0000 T02060194


USA.gov is the U.S. government's official web portal to all federal, state and local government web resources and services.